Time;durP1;ratioP1;P1;durP2;ratioP2;P2;SDS_P1;SDS_P2;PMS_P1;PMS_P2;Temp;Humidity;BMP_temperature;BMP_pressure;BME280_temperature;BME280_humidity;BME280_pressure;Samples;Min_cycle;Max_cycle;Signal;HPM_P1;HPM_P2
2021/08/15 03:32:26;;;;;;;13.73;12.33;;;;;;;24.51;58.60;98795.63;8585102;22;20293;-82
2021/08/15 03:35:48;;;;;;;14.53;13.03;;;;;;;23.70;61.33;98803.13;8582272;23;20189;-80
2021/08/15 03:39:10;;;;;;;16.80;14.53;;;;;;;23.04;63.85;98792.88;8582448;23;20184;-79
2021/08/15 03:42:32;;;;;;;15.80;14.10;;;;;;;23.59;63.55;98789.75;8596125;23;20205;-80
2021/08/15 03:45:53;;;;;;;14.90;13.00;;;;;;;23.82;61.69;98758.66;8582351;23;20176;-80
2021/08/15 03:49:18;;;;;;;13.77;12.37;;;;;;;24.02;61.16;98783.28;8581956;23;20183;-80
2021/08/15 03:52:40;;;;;;;18.60;13.53;;;;;;;23.99;61.12;98773.66;8581211;23;20258;-81
2021/08/15 03:56:02;;;;;;;14.17;12.77;;;;;;;24.12;60.80;98788.69;8582843;23;20205;-80
2021/08/15 03:59:23;;;;;;;14.27;12.87;;;;;;;24.08;61.08;98787.63;8596185;23;20186;-80
2021/08/15 04:02:45;;;;;;;14.20;12.87;;;;;;;24.03;60.66;98783.00;8595923;23;20198;-79
2021/08/15 04:06:09;;;;;;;13.00;11.80;;;;;;;24.47;59.35;98778.03;8595962;23;20524;-80
2021/08/15 04:09:30;;;;;;;14.37;12.70;;;;;;;24.24;59.67;98781.63;8581587;23;20181;-80
2021/08/15 04:12:52;;;;;;;14.07;11.83;;;;;;;24.21;59.84;98779.47;8596285;23;20673;-80
2021/08/15 04:16:13;;;;;;;13.43;12.03;;;;;;;24.26;59.53;98786.84;8582543;23;20210;-80
2021/08/15 04:19:35;;;;;;;13.30;11.93;;;;;;;23.91;60.54;98785.31;8582238;23;20185;-80
2021/08/15 04:22:58;;;;;;;15.03;13.43;;;;;;;23.85;60.53;98774.59;8592021;23;20202;-80
2021/08/15 04:26:19;;;;;;;16.27;13.20;;;;;;;23.73;61.02;98765.91;8595426;23;20180;-80
2021/08/15 04:29:41;;;;;;;14.73;13.30;;;;;;;23.92;60.88;98773.19;8594158;23;20182;-80
2021/08/15 04:33:03;;;;;;;16.10;12.60;;;;;;;23.91;61.07;98770.72;8643142;23;20208;-80
2021/08/15 04:36:24;;;;;;;16.80;13.27;;;;;;;23.75;61.63;98760.94;8635718;23;20667;-80
2021/08/15 04:39:47;;;;;;;15.93;13.87;;;;;;;23.75;61.99;98764.53;8649421;23;20202;-80
2021/08/15 04:43:09;;;;;;;14.63;13.13;;;;;;;23.76;61.87;98755.16;8634289;22;20204;-79
2021/08/15 04:46:30;;;;;;;15.83;14.30;;;;;;;23.73;61.26;98738.38;8636505;23;20179;-80
2021/08/15 04:49:52;;;;;;;16.93;15.17;;;;;;;23.80;61.91;98763.66;8634764;23;20211;-80
2021/08/15 04:53:13;;;;;;;17.20;13.87;;;;;;;23.75;62.20;98764.53;8635430;22;20212;-80
2021/08/15 04:56:36;;;;;;;14.50;12.53;;;;;;;23.98;61.11;98752.75;8635095;23;20205;-81
2021/08/15 04:59:58;;;;;;;14.50;12.50;;;;;;;23.95;61.39;98755.25;8634496;23;20178;-80
2021/08/15 05:03:20;;;;;;;15.20;13.60;;;;;;;24.05;60.93;98749.63;8635388;22;20586;-80
2021/08/15 05:06:41;;;;;;;13.80;12.50;;;;;;;24.00;61.23;98738.66;8631897;23;20182;-80
2021/08/15 05:10:04;;;;;;;14.53;13.13;;;;;;;24.19;61.15;98761.59;8625072;23;20592;-81
2021/08/15 05:13:28;;;;;;;14.87;13.30;;;;;;;24.21;61.14;98759.34;8632740;22;20211;-80
2021/08/15 05:16:49;;;;;;;14.97;13.53;;;;;;;24.41;61.12;98773.69;8631759;23;20198;-81
2021/08/15 05:20:12;;;;;;;16.03;14.43;;;;;;;24.35;61.41;98774.88;8644641;22;20167;-81
2021/08/15 05:23:34;;;;;;;15.97;14.47;;;;;;;24.47;61.29;98775.28;8633844;23;20187;-81
2021/08/15 05:26:55;;;;;;;15.40;13.90;;;;;;;24.60;61.16;98773.78;8634147;23;20191;-81
2021/08/15 05:30:18;;;;;;;17.97;14.43;;;;;;;24.52;60.67;98764.19;8628742;22;20180;-81
2021/08/15 05:33:40;;;;;;;16.07;13.30;;;;;;;24.91;60.49;98778.56;8630710;23;20165;-80
2021/08/15 05:37:01;;;;;;;16.10;14.50;;;;;;;25.45;59.00;98780.78;8644906;23;20715;-81
2021/08/15 05:40:23;;;;;;;15.33;13.70;;;;;;;25.67;57.91;98780.97;8645171;22;20225;-81
2021/08/15 05:43:45;;;;;;;13.50;12.20;;;;;;;25.60;58.37;98775.00;8645406;23;20177;-81
2021/08/15 05:47:09;;;;;;;13.37;12.17;;;;;;;25.55;57.62;98708.81;8630824;23;20185;-81
2021/08/15 05:50:30;;;;;;;13.23;11.80;;;;;;;26.30;56.51;98780.03;8630449;22;20214;-81
2021/08/15 05:53:52;;;;;;;13.63;12.33;;;;;;;26.44;56.24;98782.81;8631504;23;20189;-80
2021/08/15 05:57:13;;;;;;;12.30;11.17;;;;;;;26.43;56.22;98795.81;8633004;23;20293;-81
2021/08/15 06:00:35;;;;;;;12.83;11.37;;;;;;;26.61;55.75;98794.09;8631529;22;20261;-81
2021/08/15 06:03:58;;;;;;;13.03;11.63;;;;;;;26.04;57.43;98792.72;8633277;23;20190;-80
2021/08/15 06:07:19;;;;;;;12.97;11.67;;;;;;;26.06;56.66;98720.53;8635885;23;20177;-80
2021/08/15 06:10:41;;;;;;;13.40;12.07;;;;;;;26.72;56.03;98788.03;8649795;22;20196;-80
2021/08/15 06:14:02;;;;;;;12.57;11.30;;;;;;;27.19;54.37;98764.56;8646159;23;20175;-80
2021/08/15 06:17:24;;;;;;;11.40;10.27;;;;;;;28.46;50.60;98776.44;8653326;23;20186;-83
2021/08/15 06:20:48;;;;;;;12.27;11.07;;;;;;;28.90;48.76;98767.06;8641775;22;20205;-80
2021/08/15 06:24:09;;;;;;;13.50;11.03;;;;;;;28.12;51.20;98764.34;8652648;23;20203;-80
2021/08/15 06:27:31;;;;;;;14.77;12.30;;;;;;;28.29;51.02;98764.41;8659458;23;20180;-80
2021/08/15 06:30:52;;;;;;;12.50;11.20;;;;;;;28.14;51.80;98762.91;8649160;22;20202;-81
2021/08/15 06:34:14;;;;;;;14.80;12.70;;;;;;;27.55;53.06;98770.88;8634765;23;20188;-82
2021/08/15 06:37:37;;;;;;;13.27;11.87;;;;;;;27.83;52.57;98766.84;8635279;23;20187;-80
2021/08/15 06:40:59;;;;;;;15.03;11.50;;;;;;;28.64;50.69;98766.19;8635176;22;20843;-80
2021/08/15 06:44:20;;;;;;;12.60;11.40;;;;;;;28.50;51.39;98748.88;8629846;23;20189;-77
2021/08/15 06:47:42;;;;;;;10.87;9.90;;;;;;;29.18;50.61;98760.91;8624263;23;20186;-80
2021/08/15 06:51:04;;;;;;;11.27;10.27;;;;;;;29.36;49.29;98750.63;8643848;22;20208;-79
2021/08/15 06:54:28;;;;;;;11.57;10.07;;;;;;;29.17;49.79;98744.56;8628505;23;20183;-80
2021/08/15 06:57:50;;;;;;;12.17;10.97;;;;;;;29.05;50.39;98741.63;8632977;23;20201;-80
2021/08/15 07:01:11;;;;;;;11.27;10.27;;;;;;;29.15;50.01;98732.97;8633181;22;20205;-80
2021/08/15 07:04:33;;;;;;;10.90;9.90;;;;;;;29.58;49.28;98723.47;8635970;22;20645;-80
2021/08/15 07:07:55;;;;;;;12.17;9.60;;;;;;;29.76;48.65;98715.88;8631853;23;20184;-80
2021/08/15 07:11:17;;;;;;;10.90;9.83;;;;;;;29.46;48.06;98714.13;8637049;22;20198;-81
2021/08/15 07:14:42;;;;;;;11.60;10.33;;;;;;;29.34;49.69;98700.94;8639240;23;20183;-80
2021/08/15 07:18:04;;;;;;;12.57;10.23;;;;;;;29.05;50.47;98728.56;8653124;23;20199;-80
2021/08/15 07:21:26;;;;;;;12.23;10.27;;;;;;;29.26;49.40;98729.53;8640083;22;20200;-80
2021/08/15 07:24:47;;;;;;;12.07;10.27;;;;;;;29.96;48.16;98723.53;8640640;23;20178;-80
2021/08/15 07:28:10;;;;;;;13.10;10.53;;;;;;;29.74;48.28;98724.59;8640201;23;20179;-81
2021/08/15 07:31:32;;;;;;;9.90;9.00;;;;;;;30.01;48.28;98724.16;8642035;22;20212;-81
2021/08/15 07:34:54;;;;;;;11.93;10.70;;;;;;;29.99;48.57;98729.22;8657315;23;20187;-80
2021/08/15 07:38:15;;;;;;;11.40;10.30;;;;;;;30.17;46.99;98705.78;8642748;23;20212;-80
2021/08/15 07:41:37;;;;;;;11.33;10.20;;;;;;;30.75;46.36;98718.88;8658076;22;20532;-81
2021/08/15 07:45:00;;;;;;;11.77;10.47;;;;;;;30.86;45.71;98703.41;8643472;23;20187;-80
2021/08/15 07:48:23;;;;;;;14.07;10.67;;;;;;;30.34;47.40;98705.69;8644062;23;20192;-80
2021/08/15 07:51:44;;;;;;;10.70;9.60;;;;;;;30.21;47.21;98692.84;8645436;22;20209;-80
2021/08/15 07:55:07;;;;;;;10.13;9.20;;;;;;;31.55;44.80;98704.47;8651719;23;20242;-81
2021/08/15 07:58:28;;;;;;;11.30;10.20;;;;;;;31.62;43.38;98660.94;8651888;22;20209;-80
2021/08/15 08:01:52;;;;;;;12.03;9.90;;;;;;;31.80;44.06;98707.00;8642753;22;20544;-81
2021/08/15 08:05:13;;;;;;;10.50;9.50;;;;;;;31.58;44.50;98718.53;8632532;23;20182;-81
2021/08/15 08:08:35;;;;;;;12.73;9.53;;;;;;;31.91;44.36;98699.00;8640089;23;20188;-81
2021/08/15 08:11:56;;;;;;;12.60;9.77;;;;;;;31.91;43.13;98715.72;8647013;22;20191;-81
2021/08/15 08:15:18;;;;;;;10.73;9.73;;;;;;;32.11;42.66;98709.22;8632767;23;20173;-81
2021/08/15 08:18:41;;;;;;;11.00;9.90;;;;;;;32.28;43.00;98700.66;8630769;23;20209;-80
2021/08/15 08:22:03;;;;;;;10.33;9.33;;;;;;;32.93;41.40;98704.00;8645319;22;20690;-81
2021/08/15 08:25:25;;;;;;;13.77;10.10;;;;;;;33.17;40.68;98697.50;8633399;23;20188;-81
2021/08/15 08:28:46;;;;;;;10.73;9.60;;;;;;;33.15;40.66;98691.47;8632370;23;20182;-81
2021/08/15 08:32:11;;;;;;;12.97;9.80;;;;;;;33.07;40.15;98681.25;8636629;22;20212;-81
2021/08/15 08:35:34;;;;;;;11.13;9.60;;;;;;;32.69;40.77;98687.25;8633076;23;20179;-81
2021/08/15 08:38:55;;;;;;;10.87;9.80;;;;;;;33.60;39.61;98681.59;8633177;23;20201;-81
2021/08/15 08:42:17;;;;;;;10.83;9.73;;;;;;;34.64;36.93;98660.28;8631882;22;20212;-81
2021/08/15 08:45:41;;;;;;;10.27;9.30;;;;;;;34.15;37.32;98678.69;8646883;23;20189;-81
2021/08/15 08:49:03;;;;;;;9.80;8.90;;;;;;;34.49;37.29;98677.94;8632969;23;20181;-80
2021/08/15 08:52:29;;;;;;;10.23;9.17;;;;;;;33.87;37.80;98672.38;8634509;22;20209;-81
2021/08/15 08:55:51;;;;;;;11.37;8.87;;;;;;;34.59;36.61;98662.56;8632260;23;20242;-80
2021/08/15 08:59:12;;;;;;;12.33;8.90;;;;;;;35.00;36.31;98664.69;8617377;23;20497;-79
2021/08/15 09:02:36;;;;;;;9.77;8.77;;;;;;;34.83;36.92;98646.34;8620075;22;20209;-79
2021/08/15 09:05:58;;;;;;;10.57;8.97;;;;;;;34.84;36.12;98661.97;8618725;23;20628;-79
2021/08/15 09:09:21;;;;;;;10.70;9.50;;;;;;;34.36;37.44;98656.84;8616899;23;20185;-79
2021/08/15 09:12:47;;;;;;;9.70;8.90;;;;;;;35.12;36.54;98628.94;8617151;22;20312;-79
2021/08/15 09:16:08;;;;;;;11.70;9.23;;;;;;;34.44;36.57;98641.81;8617011;23;20604;-79
2021/08/15 09:19:33;;;;;;;10.00;8.37;;;;;;;34.32;37.81;98639.13;8617004;23;20202;-79
2021/08/15 09:22:54;;;;;;;10.77;8.03;;;;;;;36.11;34.50;98631.59;8617677;22;20197;-79
2021/08/15 09:26:19;;;;;;;11.53;7.67;;;;;;;36.35;33.91;98634.03;8617837;23;20661;-79
2021/08/15 09:29:41;;;;;;;9.53;8.43;;;;;;;36.39;32.45;98632.09;8631361;23;20185;-79
2021/08/15 09:33:04;;;;;;;10.37;8.17;;;;;;;36.40;33.44;98625.28;8613567;22;20208;-81
2021/08/15 09:36:31;;;;;;;9.40;7.77;;;;;;;36.84;32.85;98610.28;8614009;23;20658;-80
2021/08/15 09:39:52;;;;;;;9.00;7.87;;;;;;;37.16;31.71;98616.31;8614163;23;20178;-80
2021/08/15 09:43:21;;;;;;;8.53;7.70;;;;;;;37.25;31.55;98608.41;8627491;22;20554;-80
2021/08/15 09:47:06;;;;;;;11.10;8.10;;;;;;;35.84;34.60;98608.31;8614104;23;20459;-80
2021/08/15 09:50:28;;;;;;;9.17;8.30;;;;;;;35.18;35.18;98602.22;8613802;22;20610;-80
2021/08/15 09:54:01;;;;;;;9.73;7.57;;;;;;;36.20;34.60;98610.53;8614134;23;20182;-81
2021/08/15 09:57:30;;;;;;;10.27;7.73;;;;;;;36.73;33.27;98614.94;8627415;23;20322;-81
2021/08/15 10:00:53;;;;;;;9.00;8.10;;;;;;;37.55;32.03;98595.88;8627434;22;20249;-81
2021/08/15 10:04:15;;;;;;;8.40;7.60;;;;;;;37.43;32.04;98598.94;8614178;23;20628;-81
2021/08/15 10:07:37;;;;;;;9.00;8.00;;;;;;;36.27;34.11;98579.78;8628206;23;20185;-81
2021/08/15 10:10:59;;;;;;;8.53;7.70;;;;;;;37.62;31.94;98590.34;8627702;22;20204;-81
2021/08/15 10:14:21;;;;;;;8.50;7.70;;;;;;;36.37;33.58;98593.13;8628035;23;20182;-82
2021/08/15 10:17:46;;;;;;;8.20;7.40;;;;;;;36.47;33.81;98586.88;8614429;23;20205;-80
2021/08/15 10:21:14;;;;;;;9.03;7.80;;;;;;;37.09;33.47;98590.94;8613689;22;20201;-82
2021/08/15 10:24:47;;;;;;;9.03;8.13;;;;;;;36.75;33.94;98590.09;8614461;23;20181;-80
2021/08/15 10:28:09;;;;;;;8.53;7.73;;;;;;;37.16;32.32;98583.41;8614048;23;20184;-81
2021/08/15 10:32:04;;;;;;;8.90;8.07;;;;;;;36.99;32.68;98578.34;8627512;22;20202;-80
2021/08/15 10:35:28;;;;;;;9.07;8.17;;;;;;;35.89;34.82;98568.69;8616328;23;20161;-80
2021/08/15 10:38:53;;;;;;;8.63;7.73;;;;;;;36.32;34.08;98576.59;8615480;23;20198;-80
2021/08/15 10:42:45;;;;;;;10.10;8.17;;;;;;;36.26;34.56;98566.88;8614591;22;20846;-80
2021/08/15 10:46:11;;;;;;;10.63;9.53;;;;;;;36.11;35.21;98567.84;8627707;23;20245;-81
2021/08/15 10:49:50;;;;;;;9.60;8.70;;;;;;;35.65;36.05;98534.59;8613967;23;20178;-84
2021/08/15 10:53:40;;;;;;;8.90;8.00;;;;;;;34.91;35.56;98555.63;8629687;22;20331;-80
2021/08/15 10:57:04;;;;;;;15.77;14.17;;;;;;;34.92;35.98;98543.25;8633023;23;20193;-82
2021/08/15 11:00:44;;;;;;;8.73;7.90;;;;;;;36.04;34.24;98556.53;8617717;22;20188;-80
2021/08/15 11:04:06;;;;;;;11.10;9.87;;;;;;;36.63;33.25;98553.81;8620444;23;20205;-80
2021/08/15 11:07:34;;;;;;;8.90;8.00;;;;;;;35.42;34.87;98540.22;8620882;23;20624;-80
2021/08/15 11:11:06;;;;;;;11.60;8.97;;;;;;;36.17;33.54;98521.44;8618715;22;20320;-80
2021/08/15 11:14:28;;;;;;;8.43;7.63;;;;;;;35.61;33.61;98520.50;8617773;23;20675;-79
2021/08/15 11:18:12;;;;;;;9.23;8.07;;;;;;;35.62;35.41;98543.75;8616622;23;20197;-79
2021/08/15 11:22:10;;;;;;;10.87;7.90;;;;;;;35.26;35.83;98535.91;8618713;22;20198;-79
2021/08/15 11:25:32;;;;;;;8.77;7.87;;;;;;;35.31;35.19;98528.00;8613316;23;20217;-80
2021/08/15 11:28:54;;;;;;;11.60;7.67;;;;;;;35.19;35.18;98521.75;8620479;23;20600;-79
2021/08/15 11:32:18;;;;;;;8.73;7.73;;;;;;;35.22;35.12;98512.56;8621422;22;20255;-79
2021/08/15 11:35:44;;;;;;;10.87;7.17;;;;;;;35.90;33.63;98502.97;8622048;23;20620;-79
2021/08/15 11:39:08;;;;;;;9.10;8.20;;;;;;;35.57;33.89;98499.19;8622804;23;20648;-80
2021/08/15 11:42:29;;;;;;;9.57;7.73;;;;;;;34.45;35.16;98486.66;8622661;22;20214;-80
2021/08/15 11:45:54;;;;;;;11.00;7.53;;;;;;;34.91;34.95;98476.38;8619878;23;20623;-80
2021/08/15 11:49:31;;;;;;;8.47;7.53;;;;;;;34.28;35.79;98481.47;8619554;23;20288;-80
2021/08/15 11:52:54;;;;;;;8.83;7.93;;;;;;;34.48;37.41;98499.88;8619447;22;20205;-80
2021/08/15 11:56:17;;;;;;;10.17;8.67;;;;;;;34.47;38.30;98487.06;8619249;23;20182;-80
2021/08/15 11:59:40;;;;;;;10.97;8.67;;;;;;;33.61;40.04;98462.28;8619179;23;20412;-80
2021/08/15 12:03:07;;;;;;;11.20;9.03;;;;;;;33.67;41.39;98474.03;8620301;22;20208;-80
2021/08/15 12:06:29;;;;;;;10.83;8.43;;;;;;;33.95;40.70;98475.50;8616602;23;20169;-79
2021/08/15 12:10:26;;;;;;;10.37;9.17;;;;;;;33.36;41.72;98466.47;8621914;23;20185;-79
2021/08/15 12:13:48;;;;;;;9.73;8.83;;;;;;;33.77;41.39;98493.06;8617366;23;20170;-79
2021/08/15 12:17:10;;;;;;;9.83;8.93;;;;;;;33.08;43.27;98481.69;8615386;23;20185;-79
2021/08/15 12:20:32;;;;;;;11.43;9.77;;;;;;;32.68;44.07;98470.63;8618421;22;20209;-80
2021/08/15 12:24:00;;;;;;;12.87;9.33;;;;;;;32.83;44.06;98483.81;8624442;23;20182;-80
2021/08/15 12:27:25;;;;;;;10.10;9.20;;;;;;;33.51;43.19;98492.78;8625188;23;20188;-80
2021/08/15 12:30:46;;;;;;;10.30;9.30;;;;;;;33.49;42.78;98481.97;8625637;22;20391;-80
2021/08/15 12:34:10;;;;;;;10.17;9.17;;;;;;;33.67;41.99;98463.63;8626011;23;20169;-80
2021/08/15 12:37:38;;;;;;;10.27;9.27;;;;;;;33.62;41.72;98452.75;8626798;23;20192;-80
2021/08/15 12:41:24;;;;;;;10.10;9.10;;;;;;;33.23;42.32;98450.94;8626045;22;20201;-80
2021/08/15 12:44:50;;;;;;;11.00;8.80;;;;;;;32.42;44.38;98450.72;8626192;23;20217;-80
2021/08/15 12:48:12;;;;;;;10.23;9.30;;;;;;;33.18;43.22;98458.78;8627053;23;20162;-79
2021/08/15 12:51:34;;;;;;;9.90;8.70;;;;;;;33.33;44.42;98458.00;8629288;22;20692;-80
2021/08/15 12:55:17;;;;;;;11.73;8.50;;;;;;;33.98;43.59;98458.00;8629833;23;20189;-80
2021/08/15 12:58:38;;;;;;;12.57;9.17;;;;;;;33.87;44.49;98448.56;8629798;23;20189;-79
2021/08/15 13:02:01;;;;;;;9.87;8.83;;;;;;;33.65;43.94;98474.38;8631707;22;20589;-79
2021/08/15 13:05:26;;;;;;;10.97;9.07;;;;;;;33.67;43.88;98482.41;8633412;23;20182;-80
2021/08/15 13:08:48;;;;;;;11.87;9.37;;;;;;;33.14;45.77;98455.88;8641285;23;20284;-80
2021/08/15 13:12:09;;;;;;;10.67;9.00;;;;;;;33.23;45.85;98441.75;8640861;22;20208;-80
2021/08/15 13:15:33;;;;;;;9.87;8.77;;;;;;;33.15;45.74;98396.06;8621720;23;20192;-80
2021/08/15 13:18:57;;;;;;;11.73;9.77;;;;;;;32.90;45.89;98382.66;8620700;23;20206;-80
2021/08/15 13:22:19;;;;;;;11.63;8.70;;;;;;;33.13;46.11;98356.47;8635489;22;20200;-80
2021/08/15 13:25:40;;;;;;;10.03;9.00;;;;;;;33.19;46.72;98399.72;8622134;23;20188;-79
2021/08/15 13:29:02;;;;;;;10.40;9.50;;;;;;;33.16;46.17;98439.59;8622474;23;20178;-79
2021/08/15 13:32:24;;;;;;;11.87;9.17;;;;;;;32.93;46.86;98472.13;8624617;22;20232;-80
2021/08/15 13:35:47;;;;;;;10.83;9.57;;;;;;;32.69;48.54;98471.41;8623795;23;20179;-80
2021/08/15 13:39:09;;;;;;;14.03;10.73;;;;;;;32.51;48.95;98475.69;8624179;23;20209;-80
2021/08/15 13:42:31;;;;;;;14.03;11.63;;;;;;;32.51;48.34;98456.97;8625736;22;20208;-80
2021/08/15 13:45:53;;;;;;;11.23;10.10;;;;;;;32.48;48.24;98445.72;8628217;23;20185;-80
2021/08/15 13:49:14;;;;;;;12.87;9.40;;;;;;;32.36;48.55;98435.38;8626690;23;20244;-80
2021/08/15 13:52:37;;;;;;;10.93;7.87;;;;;;;31.30;46.90;98435.25;8625850;22;20210;-80
2021/08/15 13:55:59;;;;;;;11.23;6.87;;;;;;;30.27;48.07;98438.34;8625513;23;20183;-79
2021/08/15 13:59:20;;;;;;;6.40;5.70;;;;;;;29.55;47.48;98448.22;8626753;23;20208;-80
2021/08/15 14:02:42;;;;;;;8.17;5.77;;;;;;;29.09;47.83;98421.34;8632525;22;20199;-79
2021/08/15 14:06:04;;;;;;;7.27;6.37;;;;;;;29.28;50.62;98393.13;8616863;23;20182;-79
2021/08/15 14:09:27;;;;;;;8.90;6.03;;;;;;;28.07;54.96;98426.31;8616555;23;20183;-80
2021/08/15 14:12:49;;;;;;;10.27;6.60;;;;;;;28.38;51.90;98427.72;8622162;22;20201;-80
2021/08/15 14:16:11;;;;;;;5.93;5.17;;;;;;;27.60;54.15;98441.88;8620886;23;20181;-80
2021/08/15 14:19:32;;;;;;;7.97;5.73;;;;;;;27.91;55.17;98392.72;8621297;23;20203;-79
2021/08/15 14:22:54;;;;;;;8.77;5.90;;;;;;;28.02;54.61;98395.97;8615607;22;20596;-79
2021/08/15 14:26:18;;;;;;;6.53;5.53;;;;;;;28.25;55.05;98403.75;8615721;23;20232;-80
2021/08/15 14:29:40;;;;;;;7.47;5.70;;;;;;;27.61;56.04;98442.72;8619704;23;20185;-79
2021/08/15 14:33:02;;;;;;;6.63;5.37;;;;;;;27.29;54.69;98443.13;8632274;22;20207;-80
2021/08/15 14:36:24;;;;;;;7.30;5.63;;;;;;;27.83;53.13;98456.47;8632197;23;20178;-79
2021/08/15 14:39:46;;;;;;;11.50;5.77;;;;;;;28.30;53.02;98455.47;8619150;23;20202;-80
2021/08/15 14:43:09;;;;;;;7.27;4.87;;;;;;;27.11;56.63;98489.28;8616832;22;20200;-79
2021/08/15 14:46:32;;;;;;;10.67;5.97;;;;;;;27.99;56.02;98511.09;8616207;23;20953;-78
2021/08/15 14:49:53;;;;;;;11.40;6.83;;;;;;;28.09;55.87;98504.41;8616316;23;20266;-79
2021/08/15 14:53:16;;;;;;;7.47;6.17;;;;;;;27.85;55.64;98499.31;8631677;22;20203;-79
2021/08/15 14:56:37;;;;;;;6.80;6.10;;;;;;;28.59;55.49;98477.78;8618831;23;20189;-79
2021/08/15 15:00:00;;;;;;;7.20;6.30;;;;;;;29.43;52.30;98440.56;8621645;23;20201;-80
2021/08/15 15:03:22;;;;;;;6.40;5.33;;;;;;;29.77;50.75;98412.56;8639765;22;20198;-79
2021/08/15 15:06:43;;;;;;;5.40;4.83;;;;;;;29.81;50.51;98402.41;8625705;23;20178;-79
2021/08/15 15:10:06;;;;;;;8.60;5.30;;;;;;;29.79;50.72;98371.34;8621417;23;20182;-78
2021/08/15 15:13:27;;;;;;;6.47;5.30;;;;;;;29.73;49.14;98410.81;8615096;22;20200;-79
2021/08/15 15:16:50;;;;;;;6.43;5.43;;;;;;;30.73;47.41;98426.13;8616585;23;20187;-78
2021/08/15 15:20:13;;;;;;;6.17;4.90;;;;;;;29.81;46.48;98421.03;8636232;22;20207;-79
2021/08/15 15:23:35;;;;;;;7.17;5.17;;;;;;;30.39;46.19;98405.00;8616351;23;20670;-79
2021/08/15 15:26:56;;;;;;;6.07;4.93;;;;;;;30.46;45.76;98401.66;8614650;23;20182;-79
2021/08/15 15:30:18;;;;;;;6.50;4.70;;;;;;;30.32;45.96;98396.38;8628133;22;20191;-79
2021/08/15 15:33:41;;;;;;;8.80;5.73;;;;;;;30.78;46.36;98404.41;8612236;23;20260;-79
2021/08/15 15:37:04;;;;;;;8.93;5.80;;;;;;;30.54;47.47;98400.75;8615366;23;20171;-80
2021/08/15 15:40:26;;;;;;;6.83;5.87;;;;;;;30.13;48.07;98387.75;8614201;22;20199;-79
2021/08/15 15:43:48;;;;;;;7.03;5.47;;;;;;;30.71;46.12;98390.25;8614359;23;20249;-79
2021/08/15 15:47:10;;;;;;;8.07;5.50;;;;;;;30.62;46.07;98383.97;8615210;23;20177;-79
2021/08/15 15:50:33;;;;;;;8.10;5.60;;;;;;;30.46;46.21;98379.38;8613565;22;20178;-79
2021/08/15 15:53:55;;;;;;;10.83;5.27;;;;;;;30.53;45.45;98385.19;8614890;23;20294;-79
2021/08/15 15:57:16;;;;;;;7.93;5.50;;;;;;;31.07;45.15;98386.69;8614844;23;20484;-79
2021/08/15 16:00:38;;;;;;;19.27;15.00;;;;;;;30.73;46.22;98387.94;8614175;22;20232;-79
2021/08/15 16:03:59;;;;;;;9.53;6.07;;;;;;;30.11;48.50;98381.72;8616846;23;20192;-79
2021/08/15 16:07:22;;;;;;;8.10;5.50;;;;;;;30.03;47.61;98365.91;8616373;23;20191;-79
2021/08/15 16:10:44;;;;;;;6.27;5.00;;;;;;;30.78;45.42;98368.22;8615870;22;20774;-79
2021/08/15 16:14:06;;;;;;;5.10;4.43;;;;;;;30.84;44.84;98354.91;8614812;23;20189;-80
2021/08/15 16:17:27;;;;;;;5.93;4.80;;;;;;;30.79;45.63;98355.91;8617030;23;20202;-80
2021/08/15 16:20:49;;;;;;;6.37;5.73;;;;;;;30.61;47.08;98365.63;8629759;22;20203;-79
2021/08/15 16:24:12;;;;;;;6.93;4.87;;;;;;;31.00;46.75;98362.22;8630321;23;20183;-79
2021/08/15 16:27:34;;;;;;;6.83;5.40;;;;;;;30.73;48.45;98364.88;8621278;23;20685;-79
2021/08/15 16:30:55;;;;;;;7.23;5.70;;;;;;;30.08;48.21;98337.88;8613548;22;20288;-79
2021/08/15 16:34:17;;;;;;;7.53;5.80;;;;;;;30.15;48.49;98340.13;8614195;23;20172;-79
2021/08/15 16:37:39;;;;;;;7.27;5.20;;;;;;;30.76;47.31;98350.25;8614033;23;20186;-79
2021/08/15 16:41:03;;;;;;;5.90;5.40;;;;;;;30.73;47.74;98365.66;8612161;22;20234;-79
2021/08/15 16:44:24;;;;;;;6.50;5.30;;;;;;;30.76;47.77;98355.81;8611683;23;20182;-80
2021/08/15 16:47:46;;;;;;;5.77;5.03;;;;;;;30.54;47.69;98331.97;8613235;23;20168;-80
2021/08/15 16:51:10;;;;;;;7.40;5.67;;;;;;;29.76;50.24;98349.81;8614208;22;20203;-79
2021/08/15 16:54:32;;;;;;;7.47;4.97;;;;;;;29.52;51.16;98338.53;8616685;23;20187;-80
2021/08/15 16:57:55;;;;;;;5.60;5.10;;;;;;;29.59;50.68;98361.06;8617563;23;20184;-79
2021/08/15 17:01:17;;;;;;;5.80;5.03;;;;;;;30.10;48.98;98346.75;8616130;22;20204;-79
2021/08/15 17:04:39;;;;;;;6.53;4.53;;;;;;;30.35;48.28;98333.69;8615558;23;20192;-80
2021/08/15 17:08:00;;;;;;;6.17;5.47;;;;;;;30.25;50.30;98329.38;8613922;23;20179;-79
2021/08/15 17:11:22;;;;;;;6.80;6.10;;;;;;;29.59;52.17;98321.34;8613945;22;20196;-79
2021/08/15 17:14:45;;;;;;;5.97;5.10;;;;;;;29.77;51.68;98331.97;8619499;23;20181;-80
2021/08/15 17:18:07;;;;;;;6.97;5.13;;;;;;;29.56;52.01;98289.50;8622095;23;20556;-80
2021/08/15 17:21:28;;;;;;;6.70;5.40;;;;;;;29.89;51.47;98317.31;8624995;22;20255;-80
2021/08/15 17:24:50;;;;;;;5.87;5.03;;;;;;;30.06;50.15;98323.50;8625648;23;20183;-80
2021/08/15 17:28:12;;;;;;;8.93;6.63;;;;;;;29.88;49.75;98362.94;8639535;23;20193;-80
2021/08/15 17:31:35;;;;;;;6.20;5.40;;;;;;;29.45;50.44;98373.56;8625861;22;20214;-80
2021/08/15 17:34:56;;;;;;;7.27;5.97;;;;;;;29.30;51.06;98382.50;8626047;23;20174;-80
2021/08/15 17:38:18;;;;;;;6.93;5.33;;;;;;;28.70;52.15;98379.16;8632332;23;20182;-80
2021/08/15 17:41:39;;;;;;;7.07;5.80;;;;;;;28.56;53.67;98373.88;8625066;22;20540;-80
2021/08/15 17:45:01;;;;;;;5.67;5.10;;;;;;;28.34;55.11;98379.59;8628896;23;20187;-80
2021/08/15 17:48:24;;;;;;;8.50;5.07;;;;;;;28.66;53.23;98387.34;8625478;23;20190;-80
2021/08/15 17:51:46;;;;;;;6.20;4.80;;;;;;;28.48;53.87;98365.56;8628487;22;20200;-80
2021/08/15 17:55:08;;;;;;;6.90;5.43;;;;;;;28.14;54.38;98315.72;8634275;23;20179;-79
2021/08/15 17:58:30;;;;;;;6.60;4.57;;;;;;;28.17;52.56;98306.72;8639491;23;20185;-80
2021/08/15 18:01:51;;;;;;;7.33;4.90;;;;;;;28.22;52.02;98271.34;8637110;22;20215;-78
2021/08/15 18:05:15;;;;;;;6.13;5.43;;;;;;;28.49;52.67;98253.47;8621126;23;20184;-79
2021/08/15 18:08:37;;;;;;;6.37;5.57;;;;;;;28.40;53.48;98205.53;8619822;23;20182;-79
2021/08/15 18:11:59;;;;;;;6.10;5.50;;;;;;;27.85;54.96;98241.59;8621246;22;20195;-79
2021/08/15 18:15:20;;;;;;;8.00;5.63;;;;;;;27.90;54.96;98313.47;8622344;23;20183;-79
2021/08/15 18:18:42;;;;;;;6.80;5.40;;;;;;;27.74;53.57;98330.91;8621084;23;20186;-79
2021/08/15 18:22:06;;;;;;;5.90;4.93;;;;;;;28.31;51.85;98329.53;8624237;22;20206;-78
2021/08/15 18:25:27;;;;;;;6.43;5.10;;;;;;;28.69;51.31;98358.13;8620472;23;20188;-79
2021/08/15 18:28:49;;;;;;;6.50;5.60;;;;;;;28.25;51.51;98333.63;8618699;23;20184;-79
2021/08/15 18:32:11;;;;;;;4.87;3.93;;;;;;;28.00;51.67;98335.31;8622030;22;20724;-79
2021/08/15 18:35:33;;;;;;;4.17;3.67;;;;;;;27.91;51.60;98342.84;8620315;23;20516;-79
2021/08/15 18:38:56;;;;;;;6.33;3.83;;;;;;;27.97;51.00;98351.78;8618309;23;20191;-79
2021/08/15 18:42:17;;;;;;;7.83;3.70;;;;;;;27.68;51.66;98327.50;8619973;22;20203;-79
2021/08/15 18:45:39;;;;;;;5.77;3.60;;;;;;;27.65;51.93;98378.00;8618330;23;20616;-79
2021/08/15 18:49:01;;;;;;;5.33;3.37;;;;;;;27.81;51.19;98370.88;8618348;23;20191;-79
2021/08/15 18:52:22;;;;;;;5.77;4.50;;;;;;;27.86;50.69;98367.13;8618144;22;20210;-79
2021/08/15 18:55:45;;;;;;;5.17;3.60;;;;;;;27.69;51.06;98361.56;8619100;23;20215;-79
2021/08/15 18:59:07;;;;;;;4.23;3.80;;;;;;;27.83;50.58;98374.13;8619939;23;20527;-80
2021/08/15 19:02:29;;;;;;;4.90;3.50;;;;;;;27.92;50.36;98376.91;8620348;22;20695;-79
2021/08/15 19:05:50;;;;;;;5.80;3.50;;;;;;;27.89;50.46;98372.81;8619490;23;20538;-79
2021/08/15 19:09:12;;;;;;;4.70;3.40;;;;;;;27.98;50.13;98383.91;8617913;23;20182;-79
2021/08/15 19:12:35;;;;;;;5.77;3.90;;;;;;;28.10;50.25;98372.97;8615841;22;20208;-79
2021/08/15 19:15:57;;;;;;;6.10;3.90;;;;;;;28.00;50.91;98364.97;8616617;23;20180;-79
2021/08/15 19:19:19;;;;;;;7.10;4.00;;;;;;;28.05;50.64;98370.34;8616134;23;20197;-79